sensor_id;sensor_type;location;lat;lon;timestamp;pressure;altitude;pressure_sealevel;temperature
63297;BMP280;49419;51.716;-4.948;2023-02-01T00:02:19;102494.56;;;10.07
63297;BMP280;49419;51.716;-4.948;2023-02-01T00:04:47;102484.78;;;10.02
63297;BMP280;49419;51.716;-4.948;2023-02-01T00:07:12;102475.72;;;9.94
63297;BMP280;49419;51.716;-4.948;2023-02-01T00:09:38;102472.91;;;9.91
63297;BMP280;49419;51.716;-4.948;2023-02-01T00:12:07;102473.78;;;9.92
63297;BMP280;49419;51.716;-4.948;2023-02-01T00:14:34;102474.19;;;9.85
63297;BMP280;49419;51.716;-4.948;2023-02-01T00:17:04;102484.44;;;9.85
63297;BMP280;49419;51.716;-4.948;2023-02-01T00:19:36;102481.63;;;9.82
63297;BMP280;49419;51.716;-4.948;2023-02-01T00:22:02;102481.38;;;9.77
63297;BMP280;49419;51.716;-4.948;2023-02-01T00:24:28;102482.13;;;9.76
63297;BMP280;49419;51.716;-4.948;2023-02-01T00:26:55;102472.25;;;9.69
63297;BMP280;49419;51.716;-4.948;2023-02-01T00:29:21;102472.25;;;9.69
63297;BMP280;49419;51.716;-4.948;2023-02-01T00:31:49;102470.28;;;9.65
63297;BMP280;49419;51.716;-4.948;2023-02-01T00:34:18;102472.84;;;9.65
63297;BMP280;49419;51.716;-4.948;2023-02-01T00:36:44;102481.09;;;9.62
63297;BMP280;49419;51.716;-4.948;2023-02-01T00:39:10;102476.97;;;9.63
63297;BMP280;49419;51.716;-4.948;2023-02-01T00:41:36;102480.31;;;9.62
63297;BMP280;49419;51.716;-4.948;2023-02-01T00:44:02;102463.66;;;9.56
63297;BMP280;49419;51.716;-4.948;2023-02-01T00:46:32;102471.41;;;9.58
63297;BMP280;49419;51.716;-4.948;2023-02-01T00:49:02;102458.28;;;9.53
63297;BMP280;49419;51.716;-4.948;2023-02-01T00:51:29;102470.41;;;9.56
63297;BMP280;49419;51.716;-4.948;2023-02-01T00:53:55;102478.53;;;9.62
63297;BMP280;49419;51.716;-4.948;2023-02-01T00:56:22;102478.75;;;9.64
63297;BMP280;49419;51.716;-4.948;2023-02-01T00:58:51;102471.38;;;9.69
63297;BMP280;49419;51.716;-4.948;2023-02-01T01:01:20;102489.06;;;9.77
63297;BMP280;49419;51.716;-4.948;2023-02-01T01:03:58;102481.75;;;9.83
63297;BMP280;49419;51.716;-4.948;2023-02-01T01:06:33;102468.34;;;9.87
63297;BMP280;49419;51.716;-4.948;2023-02-01T01:09:01;102480.03;;;9.95
63297;BMP280;49419;51.716;-4.948;2023-02-01T01:11:32;102467.22;;;9.95
63297;BMP280;49419;51.716;-4.948;2023-02-01T01:13:59;102475.28;;;10.01
63297;BMP280;49419;51.716;-4.948;2023-02-01T01:16:27;102470.47;;;10.05
63297;BMP280;49419;51.716;-4.948;2023-02-01T01:18:53;102472.28;;;10.06
63297;BMP280;49419;51.716;-4.948;2023-02-01T01:21:20;102461.91;;;10.05
63297;BMP280;49419;51.716;-4.948;2023-02-01T01:23:46;102474.16;;;10.09
63297;BMP280;49419;51.716;-4.948;2023-02-01T01:26:18;102460.91;;;10.03
63297;BMP280;49419;51.716;-4.948;2023-02-01T01:28:57;102472.16;;;10.05
63297;BMP280;49419;51.716;-4.948;2023-02-01T01:31:25;102470.97;;;10.00
63297;BMP280;49419;51.716;-4.948;2023-02-01T01:33:53;102474.34;;;9.99
63297;BMP280;49419;51.716;-4.948;2023-02-01T01:36:21;102482.81;;;9.98
63297;BMP280;49419;51.716;-4.948;2023-02-01T01:38:47;102479.03;;;9.93
63297;BMP280;49419;51.716;-4.948;2023-02-01T01:41:17;102484.19;;;9.93
63297;BMP280;49419;51.716;-4.948;2023-02-01T01:44:03;102490.88;;;9.91
63297;BMP280;49419;51.716;-4.948;2023-02-01T01:46:36;102489.66;;;9.86
63297;BMP280;49419;51.716;-4.948;2023-02-01T01:49:17;102486.88;;;9.83
63297;BMP280;49419;51.716;-4.948;2023-02-01T01:52:00;102496.25;;;9.83
63297;BMP280;49419;51.716;-4.948;2023-02-01T01:54:35;102497.72;;;9.79
63297;BMP280;49419;51.716;-4.948;2023-02-01T01:57:30;102494.94;;;9.76
63297;BMP280;49419;51.716;-4.948;2023-02-01T02:00:05;102502.53;;;9.75
63297;BMP280;49419;51.716;-4.948;2023-02-01T02:02:37;102496.22;;;9.70
63297;BMP280;49419;51.716;-4.948;2023-02-01T02:05:18;102504.59;;;9.67
63297;BMP280;49419;51.716;-4.948;2023-02-01T02:07:52;102503.69;;;9.67
63297;BMP280;49419;51.716;-4.948;2023-02-01T02:10:19;102497.38;;;9.62
63297;BMP280;49419;51.716;-4.948;2023-02-01T02:13:06;102506.88;;;9.63
63297;BMP280;49419;51.716;-4.948;2023-02-01T02:15:32;102499.19;;;9.63
63297;BMP280;49419;51.716;-4.948;2023-02-01T02:18:19;102491.06;;;9.57
63297;BMP280;49419;51.716;-4.948;2023-02-01T02:26:23;102504.22;;;9.50
63297;BMP280;49419;51.716;-4.948;2023-02-01T02:34:40;102496.53;;;9.50
63297;BMP280;49419;51.716;-4.948;2023-02-01T02:37:37;102498.44;;;9.53
63297;BMP280;49419;51.716;-4.948;2023-02-01T02:40:28;102504.56;;;9.55
63297;BMP280;49419;51.716;-4.948;2023-02-01T02:43:32;102495.97;;;9.54
63297;BMP280;49419;51.716;-4.948;2023-02-01T02:46:29;102504.34;;;9.52
63297;BMP280;49419;51.716;-4.948;2023-02-01T02:49:36;102507.91;;;9.54
63297;BMP280;49419;51.716;-4.948;2023-02-01T02:52:13;102488.66;;;9.47
63297;BMP280;49419;51.716;-4.948;2023-02-01T02:55:05;102484.59;;;9.51
63297;BMP280;49419;51.716;-4.948;2023-02-01T02:57:40;102477.72;;;9.50
63297;BMP280;49419;51.716;-4.948;2023-02-01T03:00:32;102482.84;;;9.50
63297;BMP280;49419;51.716;-4.948;2023-02-01T03:03:19;102483.72;;;9.50
63297;BMP280;49419;51.716;-4.948;2023-02-01T03:06:31;102483.63;;;9.49
63297;BMP280;49419;51.716;-4.948;2023-02-01T03:08:58;102476.63;;;9.46
63297;BMP280;49419;51.716;-4.948;2023-02-01T03:11:28;102481.97;;;9.49
63297;BMP280;49419;51.716;-4.948;2023-02-01T03:14:18;102472.59;;;9.50
63297;BMP280;49419;51.716;-4.948;2023-02-01T03:17:01;102473.47;;;9.50
63297;BMP280;49419;51.716;-4.948;2023-02-01T03:19:45;102481.28;;;9.52
63297;BMP280;49419;51.716;-4.948;2023-02-01T03:22:18;102478.91;;;9.55
63297;BMP280;49419;51.716;-4.948;2023-02-01T03:24:54;102477.22;;;9.55
63297;BMP280;49419;51.716;-4.948;2023-02-01T03:27:35;102486.44;;;9.64
63297;BMP280;49419;51.716;-4.948;2023-02-01T03:32:38;102478.38;;;9.71
63297;BMP280;49419;51.716;-4.948;2023-02-01T03:39:04;102466.94;;;9.79
63297;BMP280;49419;51.716;-4.948;2023-02-01T03:45:18;102458.78;;;9.85
63297;BMP280;49419;51.716;-4.948;2023-02-01T03:47:44;102446.66;;;9.82
63297;BMP280;49419;51.716;-4.948;2023-02-01T03:50:22;102436.97;;;9.78
63297;BMP280;49419;51.716;-4.948;2023-02-01T03:53:11;102464.34;;;9.91
63297;BMP280;49419;51.716;-4.948;2023-02-01T03:55:52;102466.03;;;9.90
63297;BMP280;49419;51.716;-4.948;2023-02-01T03:58:21;102463.66;;;9.93
63297;BMP280;49419;51.716;-4.948;2023-02-01T04:00:55;102461.09;;;9.93
63297;BMP280;49419;51.716;-4.948;2023-02-01T04:03:20;102456.75;;;9.92
63297;BMP280;49419;51.716;-4.948;2023-02-01T04:05:50;102451.81;;;9.95
63297;BMP280;49419;51.716;-4.948;2023-02-01T04:08:20;102451.63;;;9.92
63297;BMP280;49419;51.716;-4.948;2023-02-01T04:10:47;102449.94;;;9.93
63297;BMP280;49419;51.716;-4.948;2023-02-01T04:13:25;102463.66;;;9.93
63297;BMP280;49419;51.716;-4.948;2023-02-01T04:15:54;102473.34;;;9.97
63297;BMP280;49419;51.716;-4.948;2023-02-01T04:18:34;102468.91;;;9.95
63297;BMP280;49419;51.716;-4.948;2023-02-01T04:21:03;102459.53;;;9.95
63297;BMP280;49419;51.716;-4.948;2023-02-01T04:23:31;102461.41;;;9.97
63297;BMP280;49419;51.716;-4.948;2023-02-01T04:26:16;102467.59;;;10.01
63297;BMP280;49419;51.716;-4.948;2023-02-01T04:28:47;102453.59;;;9.96
63297;BMP280;49419;51.716;-4.948;2023-02-01T04:31:35;102455.75;;;10.03
63297;BMP280;49419;51.716;-4.948;2023-02-01T04:34:02;102446.31;;;10.02
63297;BMP280;49419;51.716;-4.948;2023-02-01T04:36:28;102435.25;;;10.03
63297;BMP280;49419;51.716;-4.948;2023-02-01T04:39:02;102419.66;;;10.00
63297;BMP280;49419;51.716;-4.948;2023-02-01T04:41:28;102425.97;;;10.05
63297;BMP280;49419;51.716;-4.948;2023-02-01T04:43:54;102418.09;;;10.02
63297;BMP280;49419;51.716;-4.948;2023-02-01T04:46:23;102407.81;;;10.02
63297;BMP280;49419;51.716;-4.948;2023-02-01T04:48:50;102421.53;;;10.02
63297;BMP280;49419;51.716;-4.948;2023-02-01T04:51:16;102401.81;;;10.01
63297;BMP280;49419;51.716;-4.948;2023-02-01T04:53:43;102417.38;;;10.04
63297;BMP280;49419;51.716;-4.948;2023-02-01T04:56:09;102418.09;;;10.02
63297;BMP280;49419;51.716;-4.948;2023-02-01T04:58:36;102427.66;;;10.04
63297;BMP280;49419;51.716;-4.948;2023-02-01T05:01:03;102416.50;;;10.04
63297;BMP280;49419;51.716;-4.948;2023-02-01T05:03:36;102400.91;;;10.01
63297;BMP280;49419;51.716;-4.948;2023-02-01T05:06:02;102408.31;;;9.96
63297;BMP280;49419;51.716;-4.948;2023-02-01T05:08:34;102406.03;;;10.01
63297;BMP280;49419;51.716;-4.948;2023-02-01T05:10:59;102408.59;;;10.01
63297;BMP280;49419;51.716;-4.948;2023-02-01T05:13:28;102419.66;;;10.00
63297;BMP280;49419;51.716;-4.948;2023-02-01T05:16:13;102440.38;;;10.03
63297;BMP280;49419;51.716;-4.948;2023-02-01T05:18:38;102445.50;;;10.03
63297;BMP280;49419;51.716;-4.948;2023-02-01T05:21:06;102448.88;;;10.02
63297;BMP280;49419;51.716;-4.948;2023-02-01T05:23:34;102457.66;;;10.05
63297;BMP280;49419;51.716;-4.948;2023-02-01T05:26:22;102462.19;;;10.09
63297;BMP280;49419;51.716;-4.948;2023-02-01T05:28:49;102445.03;;;10.08
63297;BMP280;49419;51.716;-4.948;2023-02-01T05:31:15;102440.97;;;10.12
63297;BMP280;49419;51.716;-4.948;2023-02-01T05:33:40;102444.72;;;10.17
63297;BMP280;49419;51.716;-4.948;2023-02-01T05:36:06;102425.88;;;10.16
63297;BMP280;49419;51.716;-4.948;2023-02-01T05:38:32;102447.59;;;10.21
63297;BMP280;49419;51.716;-4.948;2023-02-01T05:40:57;102431.41;;;10.22
63297;BMP280;49419;51.716;-4.948;2023-02-01T05:43:22;102452.22;;;10.27
63297;BMP280;49419;51.716;-4.948;2023-02-01T05:45:48;102442.75;;;10.26
63297;BMP280;49419;51.716;-4.948;2023-02-01T05:48:14;102448.66;;;10.25
63297;BMP280;49419;51.716;-4.948;2023-02-01T05:50:39;102434.75;;;10.21
63297;BMP280;49419;51.716;-4.948;2023-02-01T05:53:05;102439.72;;;10.18
63297;BMP280;49419;51.716;-4.948;2023-02-01T05:55:31;102448.97;;;10.16
63297;BMP280;49419;51.716;-4.948;2023-02-01T05:57:57;102458.38;;;10.16
63297;BMP280;49419;51.716;-4.948;2023-02-01T06:00:23;102461.69;;;10.15
63297;BMP280;49419;51.716;-4.948;2023-02-01T06:02:55;102465.25;;;10.17
63297;BMP280;49419;51.716;-4.948;2023-02-01T06:05:48;102477.28;;;10.18
63297;BMP280;49419;51.716;-4.948;2023-02-01T06:08:14;102469.69;;;10.19
63297;BMP280;49419;51.716;-4.948;2023-02-01T06:10:40;102468.91;;;10.20
63297;BMP280;49419;51.716;-4.948;2023-02-01T06:13:08;102470.59;;;10.20
63297;BMP280;49419;51.716;-4.948;2023-02-01T06:15:33;102456.97;;;10.21
63297;BMP280;49419;51.716;-4.948;2023-02-01T06:18:00;102464.06;;;10.25
63297;BMP280;49419;51.716;-4.948;2023-02-01T06:20:30;102452.22;;;10.27
63297;BMP280;49419;51.716;-4.948;2023-02-01T06:22:55;102453.81;;;10.25
63297;BMP280;49419;51.716;-4.948;2023-02-01T06:25:21;102450.66;;;10.28
63297;BMP280;49419;51.716;-4.948;2023-02-01T06:27:47;102436.94;;;10.28
63297;BMP280;49419;51.716;-4.948;2023-02-01T06:30:13;102437.72;;;10.27
63297;BMP280;49419;51.716;-4.948;2023-02-01T06:32:40;102426.88;;;10.31
63297;BMP280;49419;51.716;-4.948;2023-02-01T06:35:07;102423.50;;;10.32
63297;BMP280;49419;51.716;-4.948;2023-02-01T06:37:42;102427.75;;;10.31
63297;BMP280;49419;51.716;-4.948;2023-02-01T06:40:09;102409.59;;;10.28
63297;BMP280;49419;51.716;-4.948;2023-02-01T06:42:36;102420.22;;;10.34
63297;BMP280;49419;51.716;-4.948;2023-02-01T06:45:06;102420.22;;;10.34
63297;BMP280;49419;51.716;-4.948;2023-02-01T06:47:32;102415.78;;;10.32
63297;BMP280;49419;51.716;-4.948;2023-02-01T06:49:58;102430.91;;;10.40
63297;BMP280;49419;51.716;-4.948;2023-02-01T06:52:24;102429.41;;;10.44
63297;BMP280;49419;51.716;-4.948;2023-02-01T06:54:49;102417.47;;;10.44
63297;BMP280;49419;51.716;-4.948;2023-02-01T06:57:15;102414.09;;;10.45
63297;BMP280;49419;51.716;-4.948;2023-02-01T06:59:40;102412.53;;;10.47
63297;BMP280;49419;51.716;-4.948;2023-02-01T07:02:11;102405.81;;;10.49
63297;BMP280;49419;51.716;-4.948;2023-02-01T07:04:37;102407.59;;;10.50
63297;BMP280;49419;51.716;-4.948;2023-02-01T07:07:03;102404.22;;;10.51
63297;BMP280;49419;51.716;-4.948;2023-02-01T07:09:45;102417.84;;;10.50
63297;BMP280;49419;51.716;-4.948;2023-02-01T07:12:13;102414.47;;;10.51
63297;BMP280;49419;51.716;-4.948;2023-02-01T07:14:41;102423.56;;;10.46
63297;BMP280;49419;51.716;-4.948;2023-02-01T07:17:07;102424.66;;;10.50
63297;BMP280;49419;51.716;-4.948;2023-02-01T07:19:34;102424.75;;;10.51
63297;BMP280;49419;51.716;-4.948;2023-02-01T07:21:59;102423.88;;;10.51
63297;BMP280;49419;51.716;-4.948;2023-02-01T07:24:25;102419.63;;;10.51
63297;BMP280;49419;51.716;-4.948;2023-02-01T07:26:52;102422.19;;;10.51
63297;BMP280;49419;51.716;-4.948;2023-02-01T07:29:18;102423.69;;;10.48
63297;BMP280;49419;51.716;-4.948;2023-02-01T07:31:43;102428.13;;;10.50
63297;BMP280;49419;51.716;-4.948;2023-02-01T07:34:09;102437.41;;;10.48
63297;BMP280;49419;51.716;-4.948;2023-02-01T07:36:34;102441.75;;;10.49
63297;BMP280;49419;51.716;-4.948;2023-02-01T07:39:04;102435.72;;;10.49
63297;BMP280;49419;51.716;-4.948;2023-02-01T07:41:48;102435.63;;;10.47
63297;BMP280;49419;51.716;-4.948;2023-02-01T07:44:14;102422.69;;;10.46
63297;BMP280;49419;51.716;-4.948;2023-02-01T07:46:40;102420.06;;;10.44
63297;BMP280;49419;51.716;-4.948;2023-02-01T07:49:06;102432.97;;;10.46
63297;BMP280;49419;51.716;-4.948;2023-02-01T07:51:34;102437.41;;;10.48
63297;BMP280;49419;51.716;-4.948;2023-02-01T07:53:59;102433.06;;;10.47
63297;BMP280;49419;51.716;-4.948;2023-02-01T07:56:24;102424.38;;;10.45
63297;BMP280;49419;51.716;-4.948;2023-02-01T07:58:54;102424.56;;;10.48
63297;BMP280;49419;51.716;-4.948;2023-02-01T08:01:24;102429.88;;;10.51
63297;BMP280;49419;51.716;-4.948;2023-02-01T08:03:57;102425.66;;;10.52
63297;BMP280;49419;51.716;-4.948;2023-02-01T08:06:24;102418.72;;;10.51
63297;BMP280;49419;51.716;-4.948;2023-02-01T08:08:52;102415.19;;;10.49
63297;BMP280;49419;51.716;-4.948;2023-02-01T08:11:22;102431.97;;;10.57
63297;BMP280;49419;51.716;-4.948;2023-02-01T08:13:48;102432.66;;;10.54
63297;BMP280;49419;51.716;-4.948;2023-02-01T08:16:17;102443.25;;;10.59
63297;BMP280;49419;51.716;-4.948;2023-02-01T08:18:43;102436.41;;;10.59
63297;BMP280;49419;51.716;-4.948;2023-02-01T08:21:19;102441.75;;;10.62
63297;BMP280;49419;51.716;-4.948;2023-02-01T08:23:45;102437.59;;;10.64
63297;BMP280;49419;51.716;-4.948;2023-02-01T08:26:20;102432.06;;;10.58
63297;BMP280;49419;51.716;-4.948;2023-02-01T08:28:49;102438.47;;;10.64
63297;BMP280;49419;51.716;-4.948;2023-02-01T08:31:17;102452.19;;;10.65
63297;BMP280;49419;51.716;-4.948;2023-02-01T08:33:49;102454.06;;;10.67
63297;BMP280;49419;51.716;-4.948;2023-02-01T08:36:16;102448.03;;;10.67
63297;BMP280;49419;51.716;-4.948;2023-02-01T08:38:42;102450.03;;;10.71
63297;BMP280;49419;51.716;-4.948;2023-02-01T08:41:13;102454.47;;;10.73
63297;BMP280;49419;51.716;-4.948;2023-02-01T08:43:40;102456.41;;;10.77
63297;BMP280;49419;51.716;-4.948;2023-02-01T08:46:07;102459.19;;;10.80
63297;BMP280;49419;51.716;-4.948;2023-02-01T08:48:33;102472.22;;;10.83
63297;BMP280;49419;51.716;-4.948;2023-02-01T08:51:04;102466.22;;;10.83
63297;BMP280;49419;51.716;-4.948;2023-02-01T08:53:40;102458.06;;;10.90
63297;BMP280;49419;51.716;-4.948;2023-02-01T08:56:09;102456.47;;;10.91
63297;BMP280;49419;51.716;-4.948;2023-02-01T08:58:37;102457.56;;;10.95
63297;BMP280;49419;51.716;-4.948;2023-02-01T09:01:05;102461.84;;;10.94
63297;BMP280;49419;51.716;-4.948;2023-02-01T09:03:31;102460.91;;;10.94
63297;BMP280;49419;51.716;-4.948;2023-02-01T09:06:02;102460.03;;;10.93
63297;BMP280;49419;51.716;-4.948;2023-02-01T09:08:28;102465.00;;;10.91
63297;BMP280;49419;51.716;-4.948;2023-02-01T09:11:01;102468.63;;;10.94
63297;BMP280;49419;51.716;-4.948;2023-02-01T09:13:27;102446.03;;;10.89
63297;BMP280;49419;51.716;-4.948;2023-02-01T09:15:53;102454.91;;;10.93
63297;BMP280;49419;51.716;-4.948;2023-02-01T09:18:19;102460.22;;;10.96
63297;BMP280;49419;51.716;-4.948;2023-02-01T09:20:44;102466.47;;;11.00
63297;BMP280;49419;51.716;-4.948;2023-02-01T09:23:10;102458.81;;;11.01
63297;BMP280;49419;51.716;-4.948;2023-02-01T09:25:38;102466.22;;;11.10
63297;BMP280;49419;51.716;-4.948;2023-02-01T09:28:04;102466.50;;;11.14
63297;BMP280;49419;51.716;-4.948;2023-02-01T09:30:32;102452.84;;;11.15
63297;BMP280;49419;51.716;-4.948;2023-02-01T09:33:10;102469.53;;;11.22
63297;BMP280;49419;51.716;-4.948;2023-02-01T09:35:38;102468.03;;;11.25
63297;BMP280;49419;51.716;-4.948;2023-02-01T09:38:06;102465.47;;;11.25
63297;BMP280;49419;51.716;-4.948;2023-02-01T09:40:34;102477.81;;;11.30
63297;BMP280;49419;51.716;-4.948;2023-02-01T09:45:59;102472.94;;;11.35
63297;BMP280;49419;51.716;-4.948;2023-02-01T09:48:38;102466.22;;;11.37
63297;BMP280;49419;51.716;-4.948;2023-02-01T09:51:15;102467.19;;;11.39
63297;BMP280;49419;51.716;-4.948;2023-02-01T09:53:44;102476.91;;;11.43
63297;BMP280;49419;51.716;-4.948;2023-02-01T09:56:15;102467.63;;;11.45
63297;BMP280;49419;51.716;-4.948;2023-02-01T09:58:47;102477.44;;;11.52
63297;BMP280;49419;51.716;-4.948;2023-02-01T10:01:21;102483.56;;;11.54
63297;BMP280;49419;51.716;-4.948;2023-02-01T10:03:48;102468.94;;;11.53
63297;BMP280;49419;51.716;-4.948;2023-02-01T10:11:39;102471.09;;;11.59
63297;BMP280;49419;51.716;-4.948;2023-02-01T10:17:04;102471.81;;;11.57
63297;BMP280;49419;51.716;-4.948;2023-02-01T10:19:43;102478.44;;;11.54
63297;BMP280;49419;51.716;-4.948;2023-02-01T10:27:48;102484.72;;;11.58
63297;BMP280;49419;51.716;-4.948;2023-02-01T10:30:24;102484.41;;;11.67
63297;BMP280;49419;51.716;-4.948;2023-02-01T10:33:17;102482.47;;;11.77
63297;BMP280;49419;51.716;-4.948;2023-02-01T10:35:45;102486.75;;;11.91
63297;BMP280;49419;51.716;-4.948;2023-02-01T10:38:37;102491.19;;;12.08
63297;BMP280;49419;51.716;-4.948;2023-02-01T10:41:17;102494.56;;;12.21
63297;BMP280;49419;51.716;-4.948;2023-02-01T10:43:44;102492.41;;;12.28
63297;BMP280;49419;51.716;-4.948;2023-02-01T10:46:10;102478.84;;;12.31
63297;BMP280;49419;51.716;-4.948;2023-02-01T10:48:36;102495.78;;;12.27
63297;BMP280;49419;51.716;-4.948;2023-02-01T10:51:14;102497.75;;;12.31
63297;BMP280;49419;51.716;-4.948;2023-02-01T10:53:54;102494.72;;;12.38
63297;BMP280;49419;51.716;-4.948;2023-02-01T10:56:27;102500.66;;;12.37
63297;BMP280;49419;51.716;-4.948;2023-02-01T10:59:00;102511.16;;;12.40
63297;BMP280;49419;51.716;-4.948;2023-02-01T11:01:34;102515.31;;;12.38
63297;BMP280;49419;51.716;-4.948;2023-02-01T11:04:06;102517.69;;;12.35
63297;BMP280;49419;51.716;-4.948;2023-02-01T11:07:03;102513.53;;;12.37
63297;BMP280;49419;51.716;-4.948;2023-02-01T11:09:35;102508.19;;;12.49
63297;BMP280;49419;51.716;-4.948;2023-02-01T11:12:04;102508.44;;;12.53
63297;BMP280;49419;51.716;-4.948;2023-02-01T11:14:38;102513.16;;;12.60
63297;BMP280;49419;51.716;-4.948;2023-02-01T11:17:35;102514.63;;;12.71
63297;BMP280;49419;51.716;-4.948;2023-02-01T11:20:16;102512.31;;;12.75
63297;BMP280;49419;51.716;-4.948;2023-02-01T11:22:53;102505.91;;;12.83
63297;BMP280;49419;51.716;-4.948;2023-02-01T11:25:19;102508.84;;;12.89
63297;BMP280;49419;51.716;-4.948;2023-02-01T11:27:45;102490.41;;;12.97
63297;BMP280;49419;51.716;-4.948;2023-02-01T11:30:16;102498.63;;;13.06
63297;BMP280;49419;51.716;-4.948;2023-02-01T11:32:46;102492.19;;;13.14
63297;BMP280;49419;51.716;-4.948;2023-02-01T11:35:13;102492.38;;;13.17
63297;BMP280;49419;51.716;-4.948;2023-02-01T11:37:42;102479.63;;;13.04
63297;BMP280;49419;51.716;-4.948;2023-02-01T11:45:25;102471.88;;;12.88
63297;BMP280;49419;51.716;-4.948;2023-02-01T11:47:55;102489.66;;;12.84
63297;BMP280;49419;51.716;-4.948;2023-02-01T11:50:38;102493.75;;;12.81
63297;BMP280;49419;51.716;-4.948;2023-02-01T12:07:22;102490.13;;;13.07
63297;BMP280;49419;51.716;-4.948;2023-02-01T12:18:35;102481.09;;;13.47
63297;BMP280;49419;51.716;-4.948;2023-02-01T12:21:28;102486.34;;;13.48
63297;BMP280;49419;51.716;-4.948;2023-02-01T12:24:04;102494.88;;;13.47
63297;BMP280;49419;51.716;-4.948;2023-02-01T12:31:42;102476.19;;;13.51
63297;BMP280;49419;51.716;-4.948;2023-02-01T12:42:51;102472.63;;;13.49
63297;BMP280;49419;51.716;-4.948;2023-02-01T12:45:31;102476.09;;;13.49
63297;BMP280;49419;51.716;-4.948;2023-02-01T12:48:04;102470.28;;;13.53
63297;BMP280;49419;51.716;-4.948;2023-02-01T12:50:50;102469.00;;;13.61
63297;BMP280;49419;51.716;-4.948;2023-02-01T12:53:26;102467.53;;;13.66
63297;BMP280;49419;51.716;-4.948;2023-02-01T12:55:55;102468.00;;;13.75
63297;BMP280;49419;51.716;-4.948;2023-02-01T12:58:40;102462.50;;;13.85
63297;BMP280;49419;51.716;-4.948;2023-02-01T13:06:41;102449.06;;;13.75
63297;BMP280;49419;51.716;-4.948;2023-02-01T13:09:29;102444.97;;;13.62
63297;BMP280;49419;51.716;-4.948;2023-02-01T13:12:07;102435.63;;;13.49
63297;BMP280;49419;51.716;-4.948;2023-02-01T13:14:44;102444.44;;;13.36
63297;BMP280;49419;51.716;-4.948;2023-02-01T13:17:31;102443.78;;;13.24
63297;BMP280;49419;51.716;-4.948;2023-02-01T13:20:20;102437.13;;;13.12
63297;BMP280;49419;51.716;-4.948;2023-02-01T13:23:03;102436.75;;;13.06
63297;BMP280;49419;51.716;-4.948;2023-02-01T13:25:50;102432.97;;;13.00
63297;BMP280;49419;51.716;-4.948;2023-02-01T13:28:23;102441.25;;;12.94
63297;BMP280;49419;51.716;-4.948;2023-02-01T13:39:57;102434.66;;;12.99
63297;BMP280;49419;51.716;-4.948;2023-02-01T13:43:10;102433.06;;;13.01
63297;BMP280;49419;51.716;-4.948;2023-02-01T13:45:29;102431.03;;;13.12
63297;BMP280;49419;51.716;-4.948;2023-02-01T13:47:57;102430.50;;;13.17
63297;BMP280;49419;51.716;-4.948;2023-02-01T13:50:32;102410.03;;;13.20
63297;BMP280;49419;51.716;-4.948;2023-02-01T13:55:55;102416.38;;;13.42
63297;BMP280;49419;51.716;-4.948;2023-02-01T13:58:35;102413.69;;;13.56
63297;BMP280;49419;51.716;-4.948;2023-02-01T14:03:59;102415.28;;;13.70
63297;BMP280;49419;51.716;-4.948;2023-02-01T14:11:35;102407.34;;;13.34
63297;BMP280;49419;51.716;-4.948;2023-02-01T14:16:40;102410.03;;;13.20
63297;BMP280;49419;51.716;-4.948;2023-02-01T14:19:09;102406.56;;;13.19
63297;BMP280;49419;51.716;-4.948;2023-02-01T14:21:50;102415.28;;;13.21
63297;BMP280;49419;51.716;-4.948;2023-02-01T14:24:30;102413.31;;;13.33
63297;BMP280;49419;51.716;-4.948;2023-02-01T14:26:59;102411.44;;;13.47
63297;BMP280;49419;51.716;-4.948;2023-02-01T14:29:37;102412.56;;;13.67
63297;BMP280;49419;51.716;-4.948;2023-02-01T14:32:23;102425.44;;;13.67
63297;BMP280;49419;51.716;-4.948;2023-02-01T14:34:55;102426.81;;;13.61
63297;BMP280;49419;51.716;-4.948;2023-02-01T14:37:29;102436.13;;;13.57
63297;BMP280;49419;51.716;-4.948;2023-02-01T14:40:01;102425.31;;;13.49
63297;BMP280;49419;51.716;-4.948;2023-02-01T15:01:00;102434.00;;;12.87
63297;BMP280;49419;51.716;-4.948;2023-02-01T15:03:55;102426.94;;;12.84
63297;BMP280;49419;51.716;-4.948;2023-02-01T15:06:31;102438.75;;;12.80
63297;BMP280;49419;51.716;-4.948;2023-02-01T15:09:00;102433.69;;;12.82
63297;BMP280;49419;51.716;-4.948;2023-02-01T15:11:29;102437.50;;;12.88
63297;BMP280;49419;51.716;-4.948;2023-02-01T15:13:54;102425.34;;;12.86
63297;BMP280;49419;51.716;-4.948;2023-02-01T15:16:25;102430.28;;;12.83
63297;BMP280;49419;51.716;-4.948;2023-02-01T15:19:07;102432.72;;;12.80
63297;BMP280;49419;51.716;-4.948;2023-02-01T15:21:42;102428.88;;;12.73
63297;BMP280;49419;51.716;-4.948;2023-02-01T15:24:13;102439.91;;;12.71
63297;BMP280;49419;51.716;-4.948;2023-02-01T15:26:40;102429.44;;;12.68
63297;BMP280;49419;51.716;-4.948;2023-02-01T15:29:10;102440.09;;;12.74
63297;BMP280;49419;51.716;-4.948;2023-02-01T15:31:39;102436.09;;;12.79
63297;BMP280;49419;51.716;-4.948;2023-02-01T15:34:07;102433.69;;;12.82
63297;BMP280;49419;51.716;-4.948;2023-02-01T15:36:32;102434.56;;;12.82
63297;BMP280;49419;51.716;-4.948;2023-02-01T15:39:22;102441.00;;;12.90
63297;BMP280;49419;51.716;-4.948;2023-02-01T15:42:08;102436.13;;;12.94
63297;BMP280;49419;51.716;-4.948;2023-02-01T15:44:40;102438.28;;;12.87
63297;BMP280;49419;51.716;-4.948;2023-02-01T15:47:17;102437.06;;;12.81
63297;BMP280;49419;51.716;-4.948;2023-02-01T15:49:46;102443.44;;;12.73
63297;BMP280;49419;51.716;-4.948;2023-02-01T15:54:53;102438.28;;;12.57
63297;BMP280;49419;51.716;-4.948;2023-02-01T15:57:23;102440.59;;;12.52
63297;BMP280;49419;51.716;-4.948;2023-02-01T16:00:03;102436.69;;;12.45
63297;BMP280;49419;51.716;-4.948;2023-02-01T16:02:44;102435.38;;;12.37
63297;BMP280;49419;51.716;-4.948;2023-02-01T16:05:40;102429.00;;;12.30
63297;BMP280;49419;51.716;-4.948;2023-02-01T16:10:58;102448.72;;;12.16
63297;BMP280;49419;51.716;-4.948;2023-02-01T16:13:28;102443.25;;;12.10
63297;BMP280;49419;51.716;-4.948;2023-02-01T16:15:56;102436.59;;;11.99
63297;BMP280;49419;51.716;-4.948;2023-02-01T16:18:26;102458.16;;;12.01
63297;BMP280;49419;51.716;-4.948;2023-02-01T16:20:51;102464.72;;;11.96
63297;BMP280;49419;51.716;-4.948;2023-02-01T16:23:17;102455.03;;;11.92
63297;BMP280;49419;51.716;-4.948;2023-02-01T16:25:43;102453.00;;;11.87
63297;BMP280;49419;51.716;-4.948;2023-02-01T16:28:10;102454.72;;;11.86